Avondale, Kentucky
Current Conditions -  °F | °C
As of 5:53 AM on Sunday 25 Jan 2015 (Local Time) from KPAH Reporting Station
Scattered Clouds Scattered Clouds  
Wind Chill:   Ceiling: Unl
Heat Index:   Visibility: 10mi
Dew Point:   Wind: 9mph
Humidity: 67%   Direction: 220°SW
Pressure: 29.7"   Gusts: NA
Location:  37.0331°N, 88.716°W
Report Text: KPAH 251153Z 22008KT 10SM SCT085 06/00 A2970 RMK AO2 SLP057 T00560000 10067 20050 56015
Loading
Personal Weather Stations






























Interactive Weather Map New forecast layout! Learn more

10-Day Weather Forecast

Advertisements
Track Severe Weather on mobile